Locust Grove, Arkansas
Current Conditions -  °F | °C
As of 2:55 AM on Saturday 29 Nov 2014 (Local Time) from KBVX Reporting Station
Overcast Overcast  
Wind Chill: 45°   Ceiling: 1700
Heat Index: 48°   Visibility: 10mi
Dew Point: 39°   Wind: 8mph
Humidity: 71%   Direction: 180°S
Pressure: 29.96"   Gusts: NA
Location:  35.72°N, 91.74°W
Report Text: KBVX 290855Z AUTO 18007KT 150V220 10SM OVC017 09/04 A2996 RMK AO1 57010
Loading
Personal Weather Stations






























Interactive Weather Map New forecast layout! Learn more

10-Day Weather Forecast

Advertisements
Track Severe Weather on mobile